createdAt,value
2022-07-31T00:04:22.148Z,101134.73
2022-07-31T00:09:54.163Z,101132.16
2022-07-31T00:14:37.011Z,101138.05
2022-07-31T00:19:44.111Z,101141.20
2022-07-31T00:24:50.496Z,101139.25
2022-07-31T00:29:55.998Z,101139.48
2022-07-31T00:35:01.783Z,101139.83
2022-07-31T00:40:08.984Z,101136.89
2022-07-31T00:45:14.492Z,101133.19
2022-07-31T00:50:20.978Z,101135.75
2022-07-31T00:55:26.746Z,101132.69
2022-07-31T01:00:32.413Z,101127.75
2022-07-31T01:05:38.283Z,101130.42
2022-07-31T01:10:59.011Z,101131.17
2022-07-31T01:16:07.478Z,101121.95
2022-07-31T01:21:16.189Z,101118.02
2022-07-31T01:26:37.820Z,101115.03
2022-07-31T01:31:49.582Z,101115.64
2022-07-31T01:36:58.882Z,101115.84
2022-07-31T01:42:07.660Z,101121.73
2022-07-31T01:47:16.810Z,101113.23
2022-07-31T01:52:25.484Z,101113.48
2022-07-31T01:57:32.921Z,101113.48
2022-07-31T02:02:42.435Z,101112.73
2022-07-31T02:07:49.962Z,101107.19
2022-07-31T02:12:56.768Z,101108.62
2022-07-31T02:18:04.185Z,101100.59
2022-07-31T02:23:16.104Z,101094.71
2022-07-31T02:28:23.175Z,101083.28
2022-07-31T02:33:31.397Z,101085.38
2022-07-31T02:38:38.735Z,101083.88
2022-07-31T02:43:46.299Z,101082.53
2022-07-31T02:48:54.022Z,101084.86
2022-07-31T02:54:01.467Z,101091.67
2022-07-31T02:59:07.803Z,101087.63
2022-07-31T03:04:15.156Z,101085.30
2022-07-31T03:09:21.654Z,101082.98
2022-07-31T03:14:32.732Z,101079.05
2022-07-31T03:19:37.566Z,101082.11
2022-07-31T03:24:45.311Z,101088.23
2022-07-31T03:29:51.283Z,101083.46
2022-07-31T03:34:57.368Z,101085.53
2022-07-31T03:40:02.925Z,101083.20
2022-07-31T03:45:10.758Z,101075.48
2022-07-31T03:50:17.572Z,101076.88
2022-07-31T03:55:23.196Z,101083.39
2022-07-31T04:00:29.222Z,101082.08
2022-07-31T04:05:35.597Z,101080.70
2022-07-31T04:10:41.115Z,101082.94
2022-07-31T04:15:48.628Z,101085.30
2022-07-31T04:20:54.394Z,101086.12
2022-07-31T04:26:00.579Z,101081.34
2022-07-31T04:31:07.981Z,101079.19
2022-07-31T04:36:29.451Z,101088.55
2022-07-31T04:41:23.414Z,101087.86
2022-07-31T04:46:30.107Z,101084.80
2022-07-31T04:51:35.972Z,101082.75
2022-07-31T04:56:43.278Z,101087.16
2022-07-31T05:01:50.287Z,101082.17
2022-07-31T05:06:57.587Z,101082.61
2022-07-31T05:12:04.251Z,101083.31
2022-07-31T05:17:10.460Z,101081.07
2022-07-31T05:22:21.164Z,101079.87
2022-07-31T05:27:32.076Z,101080.16
2022-07-31T05:32:35.660Z,101072.00
2022-07-31T05:37:41.869Z,101066.27
2022-07-31T05:42:48.051Z,101067.95
2022-07-31T05:47:58.493Z,101077.84
2022-07-31T05:53:04.085Z,101071.80
2022-07-31T05:58:20.994Z,101078.77
2022-07-31T06:03:36.953Z,101071.86
2022-07-31T06:08:41.236Z,101077.08
2022-07-31T06:13:46.813Z,101075.50
2022-07-31T06:19:00.243Z,101085.96
2022-07-31T06:24:06.793Z,101089.53
2022-07-31T06:29:18.538Z,101088.53
2022-07-31T06:34:25.094Z,101082.67
2022-07-31T06:39:56.064Z,101089.59
2022-07-31T06:44:40.438Z,101092.94
2022-07-31T06:50:06.178Z,101088.15
2022-07-31T06:55:13.504Z,101089.09
2022-07-31T07:00:21.067Z,101074.60
2022-07-31T07:05:28.722Z,101068.86
2022-07-31T07:10:35.105Z,101069.91
2022-07-31T07:15:55.026Z,101072.50
2022-07-31T07:21:02.741Z,101063.98
2022-07-31T07:26:09.086Z,101058.64
2022-07-31T07:31:14.670Z,101060.33
2022-07-31T07:36:22.300Z,101062.20
2022-07-31T07:41:28.564Z,101057.93
2022-07-31T07:46:34.847Z,101060.69
2022-07-31T07:52:00.110Z,101054.44
2022-07-31T07:56:55.314Z,101060.39
2022-07-31T08:02:06.770Z,101065.17
2022-07-31T08:07:12.895Z,101058.30
2022-07-31T08:12:18.538Z,101057.38
2022-07-31T08:17:42.179Z,101068.20
2022-07-31T08:22:49.331Z,101061.75
2022-07-31T08:27:55.202Z,101064.17
2022-07-31T08:33:02.440Z,101058.62
2022-07-31T08:38:09.728Z,101057.14
2022-07-31T08:44:01.685Z,101044.34
2022-07-31T08:48:26.232Z,101032.18
2022-07-31T08:53:34.114Z,101030.26
2022-07-31T08:58:41.679Z,101027.42
2022-07-31T09:03:47.256Z,101035.94
2022-07-31T09:08:54.139Z,101029.45
2022-07-31T09:14:03.829Z,101038.20
2022-07-31T09:19:52.477Z,101039.97
2022-07-31T09:24:30.233Z,101032.55
2022-07-31T09:29:41.402Z,101031.27
2022-07-31T09:34:49.629Z,101026.93
2022-07-31T09:39:57.561Z,101023.83
2022-07-31T09:45:23.523Z,101021.17
2022-07-31T09:50:29.770Z,101019.00
2022-07-31T09:55:36.781Z,101018.33
2022-07-31T10:00:43.248Z,101007.25
2022-07-31T10:05:50.988Z,101011.19
2022-07-31T10:10:57.769Z,101005.11
2022-07-31T10:16:11.520Z,101008.86
2022-07-31T10:21:39.318Z,101014.14
2022-07-31T10:27:00.320Z,101014.69
2022-07-31T10:31:57.812Z,100998.79
2022-07-31T10:37:18.135Z,100997.06
2022-07-31T10:42:31.271Z,100988.87
2022-07-31T10:47:37.240Z,100991.96
2022-07-31T10:52:44.698Z,100984.06
2022-07-31T10:57:57.271Z,100987.95
2022-07-31T11:03:21.580Z,100982.30
2022-07-31T11:08:49.967Z,100984.78
2022-07-31T11:13:58.119Z,100984.80
2022-07-31T11:19:14.247Z,100977.05
2022-07-31T11:24:23.523Z,100977.10
2022-07-31T11:29:58.785Z,100972.23
2022-07-31T11:34:57.885Z,100965.85
2022-07-31T11:40:04.957Z,100969.61
2022-07-31T11:45:14.433Z,100967.78
2022-07-31T11:50:20.986Z,100968.06
2022-07-31T11:55:26.700Z,100968.15
2022-07-31T12:00:32.364Z,100966.98
2022-07-31T12:05:49.552Z,100960.02
2022-07-31T12:10:56.442Z,100959.17
2022-07-31T12:16:10.303Z,100962.73
2022-07-31T12:21:16.585Z,100958.47
2022-07-31T12:26:30.587Z,100947.56
2022-07-31T12:31:55.462Z,100939.55
2022-07-31T12:37:07.211Z,100939.41
2022-07-31T12:42:33.266Z,100935.59
2022-07-31T12:47:38.280Z,100917.41
2022-07-31T12:52:43.886Z,100919.40
2022-07-31T12:57:50.997Z,100911.05
2022-07-31T13:02:58.501Z,100902.72
2022-07-31T13:08:04.248Z,100895.44
2022-07-31T13:13:09.887Z,100898.20
2022-07-31T13:18:15.461Z,100901.09
2022-07-31T13:23:21.787Z,100886.78
2022-07-31T13:28:28.458Z,100886.27
2022-07-31T13:33:33.989Z,100888.88
2022-07-31T13:38:39.556Z,100883.33
2022-07-31T13:43:59.600Z,100877.13
2022-07-31T13:48:57.061Z,100877.83
2022-07-31T13:54:02.800Z,100867.19
2022-07-31T13:59:08.364Z,100858.10
2022-07-31T14:04:16.854Z,100858.62
2022-07-31T14:09:21.544Z,100855.41
2022-07-31T14:14:27.115Z,100860.63
2022-07-31T14:19:44.499Z,100864.17
2022-07-31T14:24:41.060Z,100855.73
2022-07-31T14:29:46.922Z,100854.52
2022-07-31T14:34:52.607Z,100845.37
2022-07-31T14:39:58.251Z,100848.73
2022-07-31T14:45:04.383Z,100842.48
2022-07-31T14:50:12.813Z,100844.94
2022-07-31T14:55:17.638Z,100845.41
2022-07-31T15:00:23.516Z,100837.33
2022-07-31T15:06:53.673Z,100834.81
2022-07-31T15:10:36.376Z,100834.24
2022-07-31T15:15:42.069Z,100830.31
2022-07-31T15:20:47.743Z,100830.03
2022-07-31T15:25:53.538Z,100823.87
2022-07-31T15:31:01.155Z,100822.23
2022-07-31T15:36:06.825Z,100813.80
2022-07-31T15:41:12.406Z,100804.10
2022-07-31T15:46:19.811Z,100810.06
2022-07-31T15:51:25.327Z,100803.83
2022-07-31T15:56:31.061Z,100806.58
2022-07-31T16:01:37.832Z,100813.27
2022-07-31T16:06:44.070Z,100815.53
2022-07-31T16:12:04.996Z,100801.69
2022-07-31T16:16:59.459Z,100802.22
2022-07-31T16:22:05.063Z,100800.52
2022-07-31T16:27:10.726Z,100797.13
2022-07-31T16:32:16.194Z,100791.30
2022-07-31T16:37:21.755Z,100793.48
2022-07-31T16:42:29.722Z,100780.25
2022-07-31T16:47:50.925Z,100782.22
2022-07-31T16:52:42.550Z,100783.37
2022-07-31T16:57:48.007Z,100780.29
2022-07-31T17:02:53.599Z,100777.49
2022-07-31T17:07:59.134Z,100773.81
2022-07-31T17:13:04.631Z,100779.48
2022-07-31T17:18:10.354Z,100775.80
2022-07-31T17:23:15.999Z,100771.88
2022-07-31T17:28:21.499Z,100772.63
2022-07-31T17:33:59.505Z,100775.23
2022-07-31T17:38:35.083Z,100769.41
2022-07-31T17:43:50.732Z,100765.38
2022-07-31T17:48:47.908Z,100771.03
2022-07-31T17:53:55.353Z,100769.27
2022-07-31T17:59:02.258Z,100773.30
2022-07-31T18:04:07.925Z,100768.60
2022-07-31T18:09:16.870Z,100771.97
2022-07-31T18:14:24.363Z,100773.38
2022-07-31T18:19:30.662Z,100771.34
2022-07-31T18:24:36.508Z,100774.70
2022-07-31T18:29:42.310Z,100766.88
2022-07-31T18:34:50.528Z,100765.30
2022-07-31T18:39:59.043Z,100760.55
2022-07-31T18:45:05.858Z,100766.91
2022-07-31T18:51:02.170Z,100767.49
2022-07-31T18:55:18.833Z,100767.49
2022-07-31T19:00:24.608Z,100769.77
2022-07-31T19:05:31.055Z,100763.16
2022-07-31T19:10:36.755Z,100763.53
2022-07-31T19:15:42.547Z,100765.63
2022-07-31T19:20:58.964Z,100764.49
2022-07-31T19:26:04.015Z,100765.56
2022-07-31T19:31:03.518Z,100770.90
2022-07-31T19:41:15.195Z,100776.83
2022-07-31T19:46:20.720Z,100766.45
2022-07-31T19:51:26.305Z,100769.69
2022-07-31T19:56:31.957Z,100768.72
2022-07-31T20:01:37.541Z,100764.99
2022-07-31T20:06:43.089Z,100762.98
2022-07-31T20:11:48.594Z,100767.78
2022-07-31T20:16:54.315Z,100765.73
2022-07-31T20:21:59.774Z,100761.64
2022-07-31T20:27:06.402Z,100758.23
2022-07-31T20:32:12.400Z,100751.62
2022-07-31T20:37:17.904Z,100750.27
2022-07-31T20:42:23.471Z,100742.11
2022-07-31T20:47:28.930Z,100749.77
2022-07-31T20:52:34.508Z,100744.30
2022-07-31T20:57:41.087Z,100746.22
2022-07-31T21:02:46.849Z,100731.36
2022-07-31T21:07:54.051Z,100729.66
2022-07-31T21:12:59.733Z,100729.48
2022-07-31T21:18:05.912Z,100729.52
2022-07-31T21:23:11.472Z,100716.38
2022-07-31T21:28:17.314Z,100718.08
2022-07-31T21:33:24.032Z,100712.45
2022-07-31T21:38:29.808Z,100712.14
2022-07-31T21:43:45.194Z,100717.25
2022-07-31T21:48:45.761Z,100707.34
2022-07-31T21:53:51.305Z,100704.95
2022-07-31T21:58:56.867Z,100710.61
2022-07-31T22:04:02.537Z,100704.94
2022-07-31T22:09:08.310Z,100704.59
2022-07-31T22:14:17.332Z,100701.17
2022-07-31T22:19:23.134Z,100698.80
2022-07-31T22:24:29.835Z,100695.21
2022-07-31T22:29:37.437Z,100694.69
2022-07-31T22:34:43.095Z,100695.24
2022-07-31T22:39:49.418Z,100699.98
2022-07-31T22:44:55.766Z,100692.50
2022-07-31T22:50:01.741Z,100690.95
2022-07-31T22:55:08.192Z,100687.88
2022-07-31T23:00:17.311Z,100687.17
2022-07-31T23:05:23.094Z,100683.77
2022-07-31T23:10:28.860Z,100680.36
2022-07-31T23:15:34.501Z,100681.89
2022-07-31T23:20:40.152Z,100673.53
2022-07-31T23:25:45.706Z,100665.52
2022-07-31T23:30:51.289Z,100670.97
2022-07-31T23:35:57.653Z,100661.93
2022-07-31T23:41:03.332Z,100660.89
2022-07-31T23:46:08.997Z,100658.02
2022-07-31T23:51:14.661Z,100658.45
2022-07-31T23:56:20.537Z,100654.53
